createdAt,value
2018-12-31T00:02:25.554Z,101152.31
2018-12-31T00:04:56.004Z,101164.56
2018-12-31T00:07:26.501Z,101163.56
2018-12-31T00:09:57.047Z,101163.63
2018-12-31T00:12:27.579Z,101169.53
2018-12-31T00:14:57.944Z,101174.12
2018-12-31T00:17:28.678Z,101177.61
2018-12-31T00:19:59.009Z,101175.61
2018-12-31T00:22:29.554Z,101183.86
2018-12-31T00:24:59.924Z,101188.72
2018-12-31T00:27:30.631Z,101193.14
2018-12-31T00:30:01.367Z,101193.14
2018-12-31T00:32:31.799Z,101210.09
2018-12-31T00:35:03.325Z,101199.14
2018-12-31T00:37:33.737Z,101212.27
2018-12-31T00:40:04.499Z,101207.64
2018-12-31T00:42:34.971Z,101208.02
2018-12-31T00:45:05.759Z,101215.50
2018-12-31T00:47:36.513Z,101225.62
2018-12-31T00:50:06.856Z,101220.16
2018-12-31T00:52:37.484Z,101227.66
2018-12-31T00:55:08.023Z,101228.52
2018-12-31T00:57:38.709Z,101206.22
2018-12-31T01:00:09.510Z,101230.28
2018-12-31T01:02:39.838Z,101242.63
2018-12-31T01:05:10.486Z,101244.88
2018-12-31T01:07:40.908Z,101242.63
2018-12-31T01:10:11.525Z,101254.81
2018-12-31T01:12:42.157Z,101254.36
2018-12-31T01:15:12.884Z,101262.85
2018-12-31T01:17:43.530Z,101255.47
2018-12-31T01:20:13.955Z,101267.71
2018-12-31T01:22:44.567Z,101267.33
2018-12-31T01:25:15.054Z,101269.12
2018-12-31T01:27:45.734Z,101266.89
2018-12-31T01:30:16.495Z,101267.71
2018-12-31T01:32:46.893Z,101270.34
2018-12-31T01:35:17.549Z,101278.20
2018-12-31T01:37:48.114Z,101276.99
2018-12-31T01:40:18.568Z,101273.51
2018-12-31T01:42:48.955Z,101276.45
2018-12-31T01:45:19.698Z,101278.64
2018-12-31T01:47:50.074Z,101278.64
2018-12-31T01:50:20.738Z,101278.16
2018-12-31T01:52:51.463Z,101285.64
2018-12-31T01:55:21.858Z,101293.52
2018-12-31T01:57:52.510Z,101295.69
2018-12-31T02:00:22.918Z,101306.45
2018-12-31T02:02:53.524Z,101305.63
2018-12-31T02:05:23.898Z,101305.63
2018-12-31T02:07:54.626Z,101309.18
2018-12-31T02:10:24.945Z,101316.02
2018-12-31T02:12:55.686Z,101319.67
2018-12-31T02:15:27.443Z,101320.12
2018-12-31T02:17:57.805Z,101321.36
2018-12-31T02:20:28.522Z,101316.02
2018-12-31T02:22:58.898Z,101316.02
2018-12-31T02:25:29.722Z,101327.92
2018-12-31T02:28:00.346Z,101326.89
2018-12-31T02:30:30.725Z,101330.98
2018-12-31T02:33:01.436Z,101330.54
2018-12-31T02:35:31.893Z,101326.98
2018-12-31T02:38:02.659Z,101333.06
2018-12-31T02:40:33.141Z,101333.06
2018-12-31T02:43:03.800Z,101330.06
2018-12-31T02:45:34.558Z,101323.60
2018-12-31T02:48:04.925Z,101324.05
2018-12-31T02:50:35.679Z,101323.67
2018-12-31T02:53:06.417Z,101327.77
2018-12-31T02:55:36.772Z,101317.06
2018-12-31T02:58:07.524Z,101317.23
2018-12-31T03:00:37.919Z,101317.23
2018-12-31T03:03:08.773Z,101319.25
2018-12-31T03:05:39.422Z,101318.58
2018-12-31T03:08:09.765Z,101322.95
2018-12-31T03:10:40.485Z,101326.67
2018-12-31T03:13:11.834Z,101327.16
2018-12-31T03:15:42.598Z,101334.25
2018-12-31T03:18:13.013Z,101336.17
2018-12-31T03:20:43.715Z,101336.17
2018-12-31T03:23:14.415Z,101334.09
2018-12-31T03:25:44.775Z,101338.13
2018-12-31T03:28:15.591Z,101345.89
2018-12-31T03:30:46.254Z,101347.36
2018-12-31T03:33:16.635Z,101357.68
2018-12-31T03:35:47.344Z,101353.37
2018-12-31T03:38:17.752Z,101355.31
2018-12-31T03:40:49.252Z,101361.33
2018-12-31T03:43:19.713Z,101363.47
2018-12-31T03:45:50.387Z,101362.54
2018-12-31T03:48:20.811Z,101370.88
2018-12-31T03:50:51.469Z,101365.32
2018-12-31T03:53:21.956Z,101373.56
2018-12-31T03:55:52.501Z,101369.80
2018-12-31T03:58:22.878Z,101370.66
2018-12-31T04:00:53.797Z,101369.19
2018-12-31T04:03:24.433Z,101374.73
2018-12-31T04:05:54.934Z,101380.05
2018-12-31T04:08:26.828Z,101376.27
2018-12-31T04:10:57.507Z,101383.53
2018-12-31T04:13:27.900Z,101383.14
2018-12-31T04:15:58.533Z,101394.39
2018-12-31T04:18:29.169Z,101392.98
2018-12-31T04:20:59.874Z,101393.70
2018-12-31T04:23:30.480Z,101392.38
2018-12-31T04:26:00.883Z,101398.07
2018-12-31T04:28:31.520Z,101397.53
2018-12-31T04:31:02.171Z,101401.55
2018-12-31T04:33:32.542Z,101403.16
2018-12-31T04:36:02.925Z,101408.34
2018-12-31T04:38:33.631Z,101408.72
2018-12-31T04:41:04.033Z,101411.11
2018-12-31T04:43:34.825Z,101404.56
2018-12-31T04:46:05.573Z,101412.87
2018-12-31T04:48:35.923Z,101412.97
2018-12-31T04:51:06.584Z,101414.56
2018-12-31T04:53:36.994Z,101410.25
2018-12-31T04:56:07.667Z,101411.27
2018-12-31T04:58:38.091Z,101419.58
2018-12-31T05:01:08.796Z,101419.28
2018-12-31T05:03:39.450Z,101431.23
2018-12-31T05:06:09.885Z,101432.70
2018-12-31T05:08:40.451Z,101439.94
2018-12-31T05:11:10.813Z,101445.00
2018-12-31T05:13:41.572Z,101446.02
2018-12-31T05:16:11.943Z,101445.24
2018-12-31T05:18:42.846Z,101449.71
2018-12-31T05:21:13.542Z,101447.09
2018-12-31T05:23:43.979Z,101445.45
2018-12-31T05:26:14.568Z,101452.45
2018-12-31T05:28:44.898Z,101448.28
2018-12-31T05:31:15.618Z,101455.45
2018-12-31T05:33:45.963Z,101455.95
2018-12-31T05:36:16.678Z,101459.50
2018-12-31T05:38:47.397Z,101464.43
2018-12-31T05:41:17.955Z,101459.97
2018-12-31T05:43:48.935Z,101463.13
2018-12-31T05:46:19.594Z,101465.11
2018-12-31T05:48:49.975Z,101470.48
2018-12-31T05:51:20.580Z,101477.95
2018-12-31T05:53:50.980Z,101480.19
2018-12-31T05:56:21.594Z,101474.95
2018-12-31T05:58:51.938Z,101476.64
2018-12-31T06:01:22.564Z,101479.07
2018-12-31T06:03:52.964Z,101480.53
2018-12-31T06:06:23.562Z,101485.76
2018-12-31T06:08:54.440Z,101479.80
2018-12-31T06:11:24.858Z,101489.10
2018-12-31T06:13:55.523Z,101489.10
2018-12-31T06:16:25.964Z,101489.19
2018-12-31T06:18:57.889Z,101494.34
2018-12-31T06:21:28.621Z,101501.22
2018-12-31T06:23:58.944Z,101505.58
2018-12-31T06:26:29.647Z,101507.95
2018-12-31T06:29:00.352Z,101514.97
2018-12-31T06:31:30.831Z,101504.80
2018-12-31T06:34:01.568Z,101510.71
2018-12-31T06:36:31.954Z,101521.03
2018-12-31T06:39:02.544Z,101524.32
2018-12-31T06:41:33.037Z,101523.15
2018-12-31T06:44:03.619Z,101526.05
2018-12-31T06:46:34.111Z,101527.48
2018-12-31T06:49:04.772Z,101531.80
2018-12-31T06:51:35.482Z,101534.69
2018-12-31T06:54:05.900Z,101537.70
2018-12-31T06:56:36.523Z,101547.52
2018-12-31T06:59:07.010Z,101548.69
2018-12-31T07:01:37.483Z,101549.08
2018-12-31T07:04:07.856Z,101552.36
2018-12-31T07:06:38.508Z,101545.42
2018-12-31T07:09:09.238Z,101551.58
2018-12-31T07:11:39.696Z,101548.44
2018-12-31T07:14:10.392Z,101558.50
2018-12-31T07:16:40.770Z,101567.48
2018-12-31T07:19:11.474Z,101577.34
2018-12-31T07:21:41.855Z,101576.30
2018-12-31T07:24:12.758Z,101579.31
2018-12-31T07:26:43.434Z,101586.50
2018-12-31T07:29:13.802Z,101583.23
2018-12-31T07:31:45.925Z,101585.98
2018-12-31T07:34:16.499Z,101581.75
2018-12-31T07:36:46.935Z,101591.81
2018-12-31T07:39:17.540Z,101593.43
2018-12-31T07:41:47.867Z,101592.52
2018-12-31T07:44:18.647Z,101606.37
2018-12-31T07:46:49.007Z,101609.91
2018-12-31T07:49:19.826Z,101613.70
2018-12-31T07:51:51.890Z,101607.16
2018-12-31T07:54:22.499Z,101610.56
2018-12-31T07:56:52.926Z,101619.06
2018-12-31T07:59:23.468Z,101612.66
2018-12-31T08:01:54.159Z,101611.03
2018-12-31T08:04:24.871Z,101624.69
2018-12-31T08:06:55.562Z,101619.72
2018-12-31T08:09:26.043Z,101618.14
2018-12-31T08:11:57.828Z,101621.02
2018-12-31T08:14:28.516Z,101615.34
2018-12-31T08:16:58.938Z,101612.08
2018-12-31T08:19:29.485Z,101613.83
2018-12-31T08:21:59.844Z,101615.48
2018-12-31T08:24:30.596Z,101613.56
2018-12-31T08:27:00.982Z,101618.27
2018-12-31T08:29:32.084Z,101625.54
2018-12-31T08:32:02.619Z,101625.54
2018-12-31T08:34:32.955Z,101623.48
2018-12-31T08:37:03.522Z,101631.59
2018-12-31T08:39:33.901Z,101631.98
2018-12-31T08:42:04.936Z,101626.36
2018-12-31T08:44:35.618Z,101637.51
2018-12-31T08:47:05.990Z,101632.41
2018-12-31T08:49:36.689Z,101636.20
2018-12-31T08:52:08.755Z,101631.28
2018-12-31T08:54:39.528Z,101631.55
2018-12-31T08:57:09.887Z,101635.60
2018-12-31T08:59:40.583Z,101638.95
2018-12-31T09:02:11.036Z,101644.19
2018-12-31T09:04:41.675Z,101638.81
2018-12-31T09:07:12.505Z,101645.22
2018-12-31T09:09:42.831Z,101645.92
2018-12-31T09:12:13.445Z,101641.92
2018-12-31T09:14:43.841Z,101641.92
2018-12-31T09:17:14.531Z,101643.09
2018-12-31T09:19:45.047Z,101640.12
2018-12-31T09:22:15.470Z,101641.13
2018-12-31T09:24:45.937Z,101648.20
2018-12-31T09:27:17.032Z,101646.69
2018-12-31T09:29:47.477Z,101644.85
2018-12-31T09:32:17.990Z,101649.90
2018-12-31T09:34:48.527Z,101650.41
2018-12-31T09:37:18.882Z,101649.23
2018-12-31T09:39:49.647Z,101649.48
2018-12-31T09:42:19.983Z,101649.23
2018-12-31T09:44:51.883Z,101649.39
2018-12-31T09:47:22.514Z,101650.70
2018-12-31T09:49:56.025Z,101645.61
2018-12-31T09:52:27.103Z,101644.91
2018-12-31T09:54:57.590Z,101646.64
2018-12-31T09:57:30.304Z,101646.36
2018-12-31T10:00:00.822Z,101648.59
2018-12-31T10:02:31.451Z,101650.80
2018-12-31T10:05:01.901Z,101653.16
2018-12-31T10:07:34.581Z,101650.41
2018-12-31T10:10:05.471Z,101648.28
2018-12-31T10:12:35.886Z,101652.32
2018-12-31T10:15:07.552Z,101653.66
2018-12-31T10:17:38.187Z,101651.18
2018-12-31T10:20:09.273Z,101651.57
2018-12-31T10:22:39.957Z,101649.34
2018-12-31T10:25:10.625Z,101653.69
2018-12-31T10:27:41.069Z,101656.67
2018-12-31T10:30:11.545Z,101656.05
2018-12-31T10:32:41.897Z,101656.86
2018-12-31T10:35:12.701Z,101663.89
2018-12-31T10:37:43.397Z,101663.02
2018-12-31T10:40:13.902Z,101669.84
2018-12-31T10:42:44.613Z,101664.18
2018-12-31T10:45:15.016Z,101668.77
2018-12-31T10:47:46.171Z,101668.11
2018-12-31T10:50:20.177Z,101671.44
2018-12-31T10:52:50.584Z,101674.00
2018-12-31T10:55:21.141Z,101669.48
2018-12-31T10:57:51.533Z,101663.68
2018-12-31T11:00:22.645Z,101669.17
2018-12-31T11:02:53.065Z,101667.65
2018-12-31T11:05:23.752Z,101658.73
2018-12-31T11:07:54.572Z,101659.61
2018-12-31T11:10:24.952Z,101661.56
2018-12-31T11:12:55.629Z,101659.11
2018-12-31T11:15:26.069Z,101661.73
2018-12-31T11:17:56.816Z,101666.44
2018-12-31T11:20:27.560Z,101668.11
2018-12-31T11:22:58.003Z,101666.91
2018-12-31T11:25:28.750Z,101672.80
2018-12-31T11:28:01.019Z,101666.64
2018-12-31T11:30:33.137Z,101671.93
2018-12-31T11:33:03.643Z,101666.11
2018-12-31T11:35:34.067Z,101668.80
2018-12-31T11:38:04.576Z,101668.09
2018-12-31T11:40:35.147Z,101664.94
2018-12-31T11:43:05.566Z,101667.86
2018-12-31T11:45:36.010Z,101665.50
2018-12-31T11:48:06.968Z,101664.92
2018-12-31T11:50:38.670Z,101669.77
2018-12-31T11:53:09.308Z,101673.05
2018-12-31T11:55:39.741Z,101665.84
2018-12-31T11:58:11.369Z,101671.91
2018-12-31T12:00:41.952Z,101671.44
2018-12-31T12:03:12.646Z,101667.90
2018-12-31T12:05:43.533Z,101675.23
2018-12-31T12:08:14.883Z,101672.36
2018-12-31T12:10:45.545Z,101672.52
2018-12-31T12:13:15.977Z,101670.96
2018-12-31T12:15:46.929Z,101669.95
2018-12-31T12:18:17.744Z,101664.14
2018-12-31T12:20:48.359Z,101660.06
2018-12-31T12:23:18.880Z,101655.13
2018-12-31T12:25:49.613Z,101646.75
2018-12-31T12:28:20.923Z,101643.55
2018-12-31T12:30:51.588Z,101643.02
2018-12-31T12:33:21.909Z,101642.78
2018-12-31T12:35:52.572Z,101643.42
2018-12-31T12:38:23.437Z,101652.53
2018-12-31T12:40:53.870Z,101651.51
2018-12-31T12:43:24.591Z,101643.79
2018-12-31T12:45:56.958Z,101649.95
2018-12-31T12:48:27.921Z,101646.41
2018-12-31T12:50:58.556Z,101650.73
2018-12-31T12:53:28.934Z,101651.41
2018-12-31T12:55:59.715Z,101659.26
2018-12-31T12:58:30.071Z,101660.18
2018-12-31T13:01:00.739Z,101663.72
2018-12-31T13:03:31.453Z,101666.59
2018-12-31T13:06:01.796Z,101661.35
2018-12-31T13:08:32.812Z,101656.89
2018-12-31T13:11:03.561Z,101666.06
2018-12-31T13:13:33.933Z,101669.20
2018-12-31T13:16:04.629Z,101663.97
2018-12-31T13:18:34.979Z,101666.98
2018-12-31T13:21:05.984Z,101674.45
2018-12-31T13:23:36.646Z,101679.69
2018-12-31T13:26:06.986Z,101681.00
2018-12-31T13:28:37.753Z,101685.20
2018-12-31T13:31:08.445Z,101679.32
2018-12-31T13:33:39.449Z,101682.86
2018-12-31T13:36:09.822Z,101689.27
2018-12-31T13:38:40.445Z,101679.97
2018-12-31T13:41:10.906Z,101685.06
2018-12-31T13:43:41.581Z,101687.41
2018-12-31T13:46:12.213Z,101676.92
2018-12-31T13:48:42.628Z,101676.59
2018-12-31T13:51:13.318Z,101669.84
2018-12-31T13:53:43.820Z,101675.11
2018-12-31T13:56:14.555Z,101666.13
2018-12-31T13:58:45.056Z,101670.06
2018-12-31T14:01:15.593Z,101667.44
2018-12-31T14:03:46.938Z,101668.47
2018-12-31T14:06:17.721Z,101673.95
2018-12-31T14:08:48.379Z,101678.61
2018-12-31T14:11:18.878Z,101676.38
2018-12-31T14:13:52.104Z,101678.77
2018-12-31T14:16:22.780Z,101672.35
2018-12-31T14:18:53.557Z,101666.97
2018-12-31T14:21:23.931Z,101664.44
2018-12-31T14:23:54.388Z,101669.98
2018-12-31T14:26:26.303Z,101662.50
2018-12-31T14:28:57.611Z,101657.98
2018-12-31T14:31:28.035Z,101653.95
2018-12-31T14:33:59.790Z,101653.37
2018-12-31T14:36:30.411Z,101659.77
2018-12-31T14:39:02.206Z,101669.16
2018-12-31T14:41:32.785Z,101669.55
2018-12-31T14:44:03.550Z,101665.94
2018-12-31T14:46:35.116Z,101665.31
2018-12-31T14:49:08.181Z,101667.41
2018-12-31T14:51:41.466Z,101660.79
2018-12-31T14:54:11.910Z,101663.80
2018-12-31T14:56:43.673Z,101667.59
2018-12-31T14:59:14.580Z,101670.50
2018-12-31T15:02:05.023Z,101673.52
2018-12-31T15:04:36.147Z,101672.59
2018-12-31T15:07:08.909Z,101672.98
2018-12-31T15:09:41.129Z,101676.47
2018-12-31T15:12:12.910Z,101683.95
2018-12-31T15:14:44.799Z,101686.09
2018-12-31T15:17:15.950Z,101682.55
2018-12-31T15:19:49.584Z,101690.36
2018-12-31T15:22:19.953Z,101693.42
2018-12-31T15:24:50.523Z,101687.49
2018-12-31T15:27:21.964Z,101686.19
2018-12-31T15:29:53.817Z,101694.97
2018-12-31T15:32:25.603Z,101696.20
2018-12-31T15:34:58.627Z,101694.34
2018-12-31T15:37:29.035Z,101701.29
2018-12-31T15:40:03.910Z,101704.45
2018-12-31T15:42:34.696Z,101701.83
2018-12-31T15:45:05.485Z,101698.67
2018-12-31T15:47:35.891Z,101701.68
2018-12-31T15:50:07.345Z,101695.52
2018-12-31T15:52:37.973Z,101697.59
2018-12-31T15:55:08.699Z,101698.37
2018-12-31T15:57:39.381Z,101685.37
2018-12-31T16:00:11.762Z,101691.48
2018-12-31T16:02:42.506Z,101695.17
2018-12-31T16:05:13.457Z,101704.59
2018-12-31T16:07:45.909Z,101706.23
2018-12-31T16:10:16.499Z,101720.91
2018-12-31T16:12:47.529Z,101711.47
2018-12-31T16:15:18.030Z,101717.30
2018-12-31T16:17:48.530Z,101715.27
2018-12-31T16:20:18.995Z,101707.27
2018-12-31T16:22:49.639Z,101712.59
2018-12-31T16:25:20.026Z,101711.67
2018-12-31T16:27:50.783Z,101706.18
2018-12-31T16:30:21.805Z,101701.58
2018-12-31T16:32:52.548Z,101705.27
2018-12-31T16:35:23.441Z,101711.53
2018-12-31T16:37:53.824Z,101703.47
2018-12-31T16:40:24.691Z,101701.53
2018-12-31T16:43:01.151Z,101684.58
2018-12-31T16:45:31.815Z,101690.66
2018-12-31T16:48:02.523Z,101693.22
2018-12-31T16:50:32.947Z,101702.31
2018-12-31T16:53:04.094Z,101713.19
2018-12-31T16:55:34.761Z,101712.80
2018-12-31T16:58:05.419Z,101713.72
2018-12-31T17:00:35.880Z,101721.53
2018-12-31T17:03:06.514Z,101722.36
2018-12-31T17:05:37.055Z,101720.27
2018-12-31T17:08:07.766Z,101717.27
2018-12-31T17:10:38.840Z,101710.70
2018-12-31T17:13:09.571Z,101710.70
2018-12-31T17:15:39.974Z,101713.33
2018-12-31T17:18:10.681Z,101713.33
2018-12-31T17:20:41.350Z,101708.17
2018-12-31T17:23:11.782Z,101702.45
2018-12-31T17:25:42.564Z,101713.42
2018-12-31T17:28:12.991Z,101719.50
2018-12-31T17:30:43.633Z,101718.27
2018-12-31T17:33:14.051Z,101724.44
2018-12-31T17:35:44.507Z,101726.33
2018-12-31T17:38:14.944Z,101730.35
2018-12-31T17:40:45.460Z,101725.16
2018-12-31T17:43:16.140Z,101727.00
2018-12-31T17:45:47.239Z,101729.77
2018-12-31T17:48:17.837Z,101718.42
2018-12-31T17:50:48.612Z,101705.80
2018-12-31T17:53:19.051Z,101707.10
2018-12-31T17:55:49.795Z,101709.24
2018-12-31T17:58:20.608Z,101698.70
2018-12-31T18:00:51.394Z,101698.70
2018-12-31T18:03:21.997Z,101696.56
2018-12-31T18:05:52.826Z,101704.87
2018-12-31T18:08:23.697Z,101706.18
2018-12-31T18:10:54.135Z,101707.10
2018-12-31T18:13:24.564Z,101715.94
2018-12-31T18:15:55.069Z,101712.01
2018-12-31T18:18:25.811Z,101709.92
2018-12-31T18:20:56.749Z,101698.60
2018-12-31T18:23:27.802Z,101694.77
2018-12-31T18:25:59.294Z,101686.72
2018-12-31T18:28:29.872Z,101695.11
2018-12-31T18:31:01.154Z,101694.28
2018-12-31T18:33:33.345Z,101689.47
2018-12-31T18:36:03.856Z,101684.81
2018-12-31T18:38:34.589Z,101686.90
2018-12-31T18:41:05.237Z,101706.11
2018-12-31T18:43:35.765Z,101710.56
2018-12-31T18:46:07.447Z,101714.02
2018-12-31T18:48:38.067Z,101722.89
2018-12-31T18:51:10.304Z,101715.94
2018-12-31T18:53:40.997Z,101715.55
2018-12-31T18:56:13.069Z,101715.22
2018-12-31T18:58:43.952Z,101720.45
2018-12-31T19:01:14.885Z,101713.08
2018-12-31T19:03:45.670Z,101704.34
2018-12-31T19:06:16.433Z,101713.91
2018-12-31T19:08:46.825Z,101717.84
2018-12-31T19:11:17.709Z,101716.22
2018-12-31T19:13:48.631Z,101709.20
2018-12-31T19:16:19.331Z,101710.37
2018-12-31T19:18:50.035Z,101710.76
2018-12-31T19:21:20.818Z,101710.31
2018-12-31T19:23:52.113Z,101707.17
2018-12-31T19:26:22.887Z,101702.84
2018-12-31T19:28:53.612Z,101704.45
2018-12-31T19:31:24.113Z,101700.62
2018-12-31T19:33:55.029Z,101696.30
2018-12-31T19:36:26.139Z,101696.21
2018-12-31T19:39:02.466Z,101696.30
2018-12-31T19:41:34.823Z,101689.22
2018-12-31T19:44:06.366Z,101687.91
2018-12-31T19:46:37.246Z,101682.86
2018-12-31T19:49:07.916Z,101689.85
2018-12-31T19:51:38.740Z,101680.72
2018-12-31T19:54:09.595Z,101684.64
2018-12-31T19:56:40.454Z,101679.27
2018-12-31T19:59:11.145Z,101683.87
2018-12-31T20:01:42.992Z,101689.78
2018-12-31T20:04:13.736Z,101681.97
2018-12-31T20:06:46.217Z,101680.36
2018-12-31T20:09:17.036Z,101686.68
2018-12-31T20:11:47.840Z,101691.14
2018-12-31T20:14:18.536Z,101685.06
2018-12-31T20:16:51.704Z,101685.06
2018-12-31T20:19:23.939Z,101691.14
2018-12-31T20:21:54.791Z,101687.20
2018-12-31T20:24:25.643Z,101690.30
2018-12-31T20:26:56.125Z,101686.81
2018-12-31T20:29:26.884Z,101681.14
2018-12-31T20:31:57.729Z,101687.69
2018-12-31T20:34:32.128Z,101685.98
2018-12-31T20:37:02.917Z,101677.34
2018-12-31T20:39:33.751Z,101681.19
2018-12-31T20:42:05.695Z,101681.66
2018-12-31T20:44:36.097Z,101671.97
2018-12-31T20:47:08.038Z,101671.05
2018-12-31T20:49:38.787Z,101667.56
2018-12-31T20:52:09.525Z,101662.80
2018-12-31T20:54:40.550Z,101657.95
2018-12-31T20:57:11.129Z,101658.92
2018-12-31T20:59:43.197Z,101646.30
2018-12-31T21:02:13.858Z,101636.75
2018-12-31T21:04:45.765Z,101634.52
2018-12-31T21:07:16.599Z,101627.24
2018-12-31T21:09:48.162Z,101622.48
2018-12-31T21:12:19.246Z,101619.72
2018-12-31T21:14:49.757Z,101611.86
2018-12-31T21:17:20.862Z,101612.25
2018-12-31T21:19:51.715Z,101609.16
2018-12-31T21:22:22.404Z,101601.28
2018-12-31T21:24:53.000Z,101597.55
2018-12-31T21:27:23.780Z,101588.86
2018-12-31T21:29:54.288Z,101587.02
2018-12-31T21:32:24.901Z,101590.47
2018-12-31T21:34:55.692Z,101576.41
2018-12-31T21:37:26.244Z,101576.41
2018-12-31T21:39:57.137Z,101569.47
2018-12-31T21:42:29.574Z,101566.70
2018-12-31T21:45:00.178Z,101568.70
2018-12-31T21:47:30.958Z,101566.84
2018-12-31T21:50:01.666Z,101569.61
2018-12-31T21:52:32.171Z,101571.84
2018-12-31T21:55:02.726Z,101572.67
2018-12-31T21:57:33.579Z,101574.20
2018-12-31T22:00:03.975Z,101572.42
2018-12-31T22:02:36.089Z,101571.59
2018-12-31T22:05:07.099Z,101564.52
2018-12-31T22:07:38.012Z,101567.52
2018-12-31T22:10:08.642Z,101561.81
2018-12-31T22:12:39.032Z,101557.83
2018-12-31T22:15:10.863Z,101560.11
2018-12-31T22:17:41.709Z,101557.05
2018-12-31T22:20:12.692Z,101555.80
2018-12-31T22:22:43.125Z,101554.67
2018-12-31T22:25:13.977Z,101544.88
2018-12-31T22:27:44.981Z,101544.48
2018-12-31T22:30:15.772Z,101544.63
2018-12-31T22:32:46.502Z,101536.14
2018-12-31T22:35:16.990Z,101530.41
2018-12-31T22:37:48.102Z,101524.15
2018-12-31T22:40:18.797Z,101518.30
2018-12-31T22:42:49.683Z,101512.77
2018-12-31T22:45:20.097Z,101510.98
2018-12-31T22:47:51.967Z,101510.00
2018-12-31T22:50:22.621Z,101506.23
2018-12-31T22:52:53.027Z,101508.16
2018-12-31T22:55:23.632Z,101502.58
2018-12-31T22:57:54.103Z,101510.14
2018-12-31T23:00:30.290Z,101503.59
2018-12-31T23:03:01.040Z,101510.28
2018-12-31T23:05:35.939Z,101505.44
2018-12-31T23:08:07.166Z,101500.20
2018-12-31T23:10:40.655Z,101492.27
2018-12-31T23:13:11.160Z,101490.75
2018-12-31T23:15:41.654Z,101485.58
2018-12-31T23:18:13.361Z,101475.19
2018-12-31T23:20:44.961Z,101470.73
2018-12-31T23:23:15.995Z,101465.73
2018-12-31T23:25:47.327Z,101458.86
2018-12-31T23:28:17.848Z,101451.55
2018-12-31T23:30:48.581Z,101453.63
2018-12-31T23:33:19.214Z,101447.62
2018-12-31T23:35:51.535Z,101441.02
2018-12-31T23:38:22.317Z,101438.31
2018-12-31T23:40:52.902Z,101436.94
2018-12-31T23:43:27.318Z,101436.94
2018-12-31T23:45:57.883Z,101434.27
2018-12-31T23:48:28.630Z,101430.10
2018-12-31T23:50:59.313Z,101428.50
2018-12-31T23:53:29.880Z,101418.02
2018-12-31T23:56:00.489Z,101423.11
2018-12-31T23:58:31.469Z,101421.41
